createdAt,value
2022-09-12T00:00:52.518Z,14.45
2022-09-12T00:03:20.097Z,14.43
2022-09-12T00:05:48.718Z,14.43
2022-09-12T00:08:16.294Z,14.47
2022-09-12T00:10:45.530Z,14.50
2022-09-12T00:13:13.277Z,14.50
2022-09-12T00:15:42.523Z,14.47
2022-09-12T00:18:13.500Z,14.40
2022-09-12T00:20:42.551Z,14.34
2022-09-12T00:23:10.327Z,14.31
2022-09-12T00:25:42.452Z,14.29
2022-09-12T00:28:11.910Z,14.27
2022-09-12T00:30:43.261Z,14.23
2022-09-12T00:33:11.999Z,14.20
2022-09-12T00:35:44.151Z,14.18
2022-09-12T00:38:11.975Z,14.13
2022-09-12T00:40:39.533Z,14.09
2022-09-12T00:43:11.246Z,14.08
2022-09-12T00:45:42.302Z,14.07
2022-09-12T00:48:22.464Z,14.02
2022-09-12T00:50:51.048Z,14.00
2022-09-12T00:53:19.256Z,13.98
2022-09-12T00:55:50.913Z,13.98
2022-09-12T00:58:22.635Z,13.97
2022-09-12T01:00:52.285Z,13.93
2022-09-12T01:03:23.138Z,13.92
2022-09-12T01:05:59.725Z,13.92
2022-09-12T01:08:29.876Z,13.91
2022-09-12T01:10:58.400Z,13.89
2022-09-12T01:13:26.692Z,13.82
2022-09-12T01:15:55.781Z,13.83
2022-09-12T01:18:31.257Z,13.82
2022-09-12T01:21:08.395Z,13.79
2022-09-12T01:24:26.713Z,13.79
2022-09-12T01:27:19.958Z,13.79
2022-09-12T01:30:20.367Z,13.78
2022-09-12T01:32:58.736Z,13.73
2022-09-12T01:35:32.856Z,13.70
2022-09-12T01:38:11.735Z,13.67
2022-09-12T01:40:47.345Z,13.65
2022-09-12T01:43:26.609Z,13.62
2022-09-12T01:46:01.649Z,13.61
2022-09-12T01:48:32.177Z,13.56
2022-09-12T01:51:07.384Z,13.56
2022-09-12T01:53:39.140Z,13.54
2022-09-12T01:56:11.213Z,13.56
2022-09-12T01:58:44.689Z,13.53
2022-09-12T02:01:15.574Z,13.49
2022-09-12T02:03:47.228Z,13.46
2022-09-12T02:06:20.831Z,13.42
2022-09-12T02:08:52.018Z,13.41
2022-09-12T02:11:20.203Z,13.42
2022-09-12T02:13:55.008Z,13.38
2022-09-12T02:16:30.096Z,13.38
2022-09-12T02:19:03.940Z,13.38
2022-09-12T02:21:32.996Z,13.35
2022-09-12T02:24:04.036Z,13.32
2022-09-12T02:26:35.864Z,13.32
2022-09-12T02:29:05.284Z,13.31
2022-09-12T02:31:38.325Z,13.29
2022-09-12T02:34:14.949Z,13.27
2022-09-12T02:36:52.973Z,13.29
2022-09-12T02:39:21.134Z,13.23
2022-09-12T02:41:49.076Z,13.21
2022-09-12T02:44:16.692Z,13.20
2022-09-12T02:46:49.529Z,13.21
2022-09-12T02:49:18.181Z,13.17
2022-09-12T02:51:46.481Z,13.12
2022-09-12T02:54:17.320Z,13.07
2022-09-12T02:56:46.496Z,13.03
2022-09-12T02:59:19.100Z,13.03
2022-09-12T03:02:18.316Z,13.00
2022-09-12T03:05:02.580Z,12.98
2022-09-12T03:07:48.889Z,12.99
2022-09-12T03:10:24.040Z,12.97
2022-09-12T03:13:03.995Z,12.93
2022-09-12T03:15:42.811Z,12.92
2022-09-12T03:18:24.924Z,12.95
2022-09-12T03:21:02.871Z,12.94
2022-09-12T03:23:38.755Z,12.92
2022-09-12T03:26:10.299Z,12.89
2022-09-12T03:28:40.419Z,12.90
2022-09-12T03:31:15.054Z,12.89
2022-09-12T03:33:44.693Z,12.87
2022-09-12T03:36:18.024Z,12.84
2022-09-12T03:38:45.703Z,12.80
2022-09-12T03:41:13.304Z,12.82
2022-09-12T03:43:41.965Z,12.79
2022-09-12T03:46:09.656Z,12.77
2022-09-12T03:48:37.286Z,12.76
2022-09-12T03:51:08.259Z,12.73
2022-09-12T03:53:36.317Z,12.71
2022-09-12T03:56:07.979Z,12.68
2022-09-12T03:58:36.407Z,12.67
2022-09-12T04:01:12.012Z,12.66
2022-09-12T04:03:40.962Z,12.64
2022-09-12T04:06:11.849Z,12.66
2022-09-12T04:08:39.711Z,12.69
2022-09-12T04:11:09.324Z,12.66
2022-09-12T04:13:38.229Z,12.62
2022-09-12T04:16:07.206Z,12.61
2022-09-12T04:18:35.398Z,12.61
2022-09-12T04:21:05.672Z,12.59
2022-09-12T04:23:34.776Z,12.54
2022-09-12T04:26:06.286Z,12.54
2022-09-12T04:28:35.487Z,12.52
2022-09-12T04:31:04.720Z,12.52
2022-09-12T04:33:32.278Z,12.47
2022-09-12T04:36:04.459Z,12.46
2022-09-12T04:38:32.043Z,12.43
2022-09-12T04:41:00.950Z,12.45
2022-09-12T04:43:28.808Z,12.45
2022-09-12T04:45:56.382Z,12.44
2022-09-12T04:48:23.899Z,12.45
2022-09-12T04:50:51.405Z,12.45
2022-09-12T04:53:18.909Z,12.45
2022-09-12T04:55:46.399Z,12.50
2022-09-12T04:58:15.271Z,12.54
2022-09-12T05:00:42.804Z,12.58
2022-09-12T05:03:10.451Z,12.62
2022-09-12T05:05:38.005Z,12.69
2022-09-12T05:08:05.517Z,12.73
2022-09-12T05:10:34.748Z,12.76
2022-09-12T05:13:02.324Z,12.82
2022-09-12T05:15:31.217Z,12.84
2022-09-12T05:17:58.712Z,12.87
2022-09-12T05:20:26.421Z,12.87
2022-09-12T05:22:53.964Z,12.87
2022-09-12T05:25:21.454Z,12.84
2022-09-12T05:27:50.625Z,12.82
2022-09-12T05:30:18.457Z,12.77
2022-09-12T05:32:47.311Z,12.73
2022-09-12T05:35:14.837Z,12.69
2022-09-12T05:38:02.138Z,12.60
2022-09-12T05:40:29.740Z,12.63
2022-09-12T05:42:57.480Z,12.76
2022-09-12T05:45:25.273Z,12.74
2022-09-12T05:47:54.333Z,12.77
2022-09-12T05:50:21.964Z,12.78
2022-09-12T05:52:50.442Z,12.79
2022-09-12T05:55:18.293Z,12.84
2022-09-12T05:57:46.714Z,12.82
2022-09-12T06:00:15.710Z,12.83
2022-09-12T06:02:43.257Z,12.86
2022-09-12T06:05:12.087Z,12.91
2022-09-12T06:07:39.739Z,12.94
2022-09-12T06:10:08.005Z,12.98
2022-09-12T06:12:35.541Z,13.04
2022-09-12T06:15:03.074Z,13.03
2022-09-12T06:17:30.680Z,13.09
2022-09-12T06:19:58.179Z,13.14
2022-09-12T06:22:27.316Z,13.24
2022-09-12T06:24:57.834Z,13.31
2022-09-12T06:27:25.732Z,13.43
2022-09-12T06:29:53.251Z,13.56
2022-09-12T06:32:20.790Z,13.72
2022-09-12T06:34:48.369Z,13.88
2022-09-12T06:37:15.886Z,14.01
2022-09-12T06:39:44.827Z,14.10
2022-09-12T06:42:13.845Z,14.19
2022-09-12T06:44:44.880Z,14.26
2022-09-12T06:47:12.824Z,14.33
2022-09-12T06:49:40.323Z,14.40
2022-09-12T06:52:08.190Z,14.50
2022-09-12T06:54:35.709Z,14.56
2022-09-12T06:57:04.928Z,14.63
2022-09-12T06:59:32.444Z,14.71
2022-09-12T07:01:59.997Z,14.81
2022-09-12T07:04:27.808Z,14.93
2022-09-12T07:06:55.349Z,15.05
2022-09-12T07:09:22.860Z,15.15
2022-09-12T07:11:50.371Z,15.25
2022-09-12T07:14:19.240Z,15.34
2022-09-12T07:16:46.813Z,15.47
2022-09-12T07:19:14.569Z,15.57
2022-09-12T07:21:42.351Z,15.68
2022-09-12T07:24:11.207Z,15.78
2022-09-12T07:26:40.701Z,15.87
2022-09-12T07:29:35.459Z,16.00
2022-09-12T07:32:00.418Z,16.17
2022-09-12T07:34:28.022Z,16.26
2022-09-12T07:36:55.519Z,16.36
2022-09-12T07:39:24.102Z,16.48
2022-09-12T07:41:51.686Z,16.58
2022-09-12T07:44:19.196Z,16.67
2022-09-12T07:46:46.715Z,16.78
2022-09-12T07:49:15.917Z,16.87
2022-09-12T07:51:43.426Z,16.98
2022-09-12T07:54:11.222Z,17.07
2022-09-12T07:56:39.539Z,17.14
2022-09-12T07:59:07.444Z,17.24
2022-09-12T08:01:35.168Z,17.32
2022-09-12T08:04:04.752Z,17.39
2022-09-12T08:06:35.975Z,17.47
2022-09-12T08:09:04.644Z,17.58
2022-09-12T08:11:32.308Z,17.67
2022-09-12T08:14:01.648Z,17.80
2022-09-12T08:16:31.113Z,17.94
2022-09-12T08:19:00.747Z,18.06
2022-09-12T08:21:30.340Z,18.20
2022-09-12T08:24:00.943Z,18.31
2022-09-12T08:26:29.259Z,18.46
2022-09-12T08:28:57.221Z,18.66
2022-09-12T08:31:26.861Z,18.77
2022-09-12T08:33:56.682Z,18.95
2022-09-12T08:36:26.811Z,19.05
2022-09-12T08:38:59.981Z,19.24
2022-09-12T08:41:31.077Z,19.41
2022-09-12T08:44:08.735Z,19.43
2022-09-12T08:46:45.685Z,19.60
2022-09-12T08:49:16.276Z,19.81
2022-09-12T08:51:44.020Z,19.95
2022-09-12T08:54:21.880Z,20.06
2022-09-12T08:56:50.815Z,20.18
2022-09-12T08:59:18.367Z,20.24
2022-09-12T09:01:46.412Z,20.39
2022-09-12T09:04:40.620Z,20.53
2022-09-12T09:07:30.912Z,20.64
2022-09-12T09:10:16.941Z,20.83
2022-09-12T09:12:56.716Z,21.03
2022-09-12T09:15:42.414Z,21.17
2022-09-12T09:18:16.559Z,21.32
2022-09-12T09:20:50.397Z,21.47
2022-09-12T09:23:24.839Z,21.65
2022-09-12T09:25:59.085Z,21.62
2022-09-12T09:28:35.213Z,21.68
2022-09-12T09:31:03.108Z,21.70
2022-09-12T09:33:35.872Z,21.90
2022-09-12T09:36:12.132Z,22.01
2022-09-12T09:38:48.616Z,22.09
2022-09-12T09:41:38.583Z,22.24
2022-09-12T09:46:40.260Z,22.66
2022-09-12T09:49:11.312Z,22.76
2022-09-12T09:51:41.286Z,22.91
2022-09-12T09:54:18.193Z,23.08
2022-09-12T09:56:45.871Z,23.11
2022-09-12T09:59:18.388Z,23.16
2022-09-12T10:01:49.069Z,23.11
2022-09-12T10:04:22.298Z,23.13
2022-09-12T10:06:54.209Z,23.20
2022-09-12T10:09:25.108Z,23.23
2022-09-12T10:11:53.691Z,23.15
2022-09-12T10:14:35.949Z,23.37
2022-09-12T10:17:22.085Z,23.50
2022-09-12T10:19:59.892Z,23.61
2022-09-12T10:22:42.044Z,23.80
2022-09-12T10:25:19.354Z,23.80
2022-09-12T10:27:54.352Z,23.84
2022-09-12T10:30:25.101Z,23.98
2022-09-12T10:32:53.966Z,24.01
2022-09-12T10:35:23.518Z,24.38
2022-09-12T10:37:56.245Z,24.65
2022-09-12T10:40:26.187Z,24.96
2022-09-12T10:42:56.024Z,25.20
2022-09-12T10:45:28.918Z,25.64
2022-09-12T10:47:59.053Z,25.83
2022-09-12T10:50:32.325Z,25.93
2022-09-12T10:53:14.300Z,25.94
2022-09-12T10:55:56.365Z,26.20
2022-09-12T10:58:36.418Z,26.26
2022-09-12T11:01:16.974Z,26.54
2022-09-12T11:04:05.573Z,26.52
2022-09-12T11:06:40.746Z,26.62
2022-09-12T11:09:18.625Z,26.59
2022-09-12T11:11:57.908Z,26.74
2022-09-12T11:14:37.170Z,26.94
2022-09-12T11:17:17.996Z,27.18
2022-09-12T11:19:59.542Z,27.67
2022-09-12T11:22:41.639Z,27.90
2022-09-12T11:25:24.675Z,28.12
2022-09-12T11:28:07.301Z,28.30
2022-09-12T11:30:40.772Z,28.23
2022-09-12T11:33:34.354Z,28.25
2022-09-12T11:36:03.527Z,28.17
2022-09-12T11:38:52.028Z,28.25
2022-09-12T11:41:26.104Z,28.66
2022-09-12T11:44:01.138Z,28.72
2022-09-12T11:46:32.834Z,29.12
2022-09-12T11:49:11.744Z,29.30
2022-09-12T11:51:45.098Z,29.42
2022-09-12T11:54:20.321Z,29.24
2022-09-12T11:56:50.825Z,28.70
2022-09-12T11:59:30.652Z,29.04
2022-09-12T12:02:00.984Z,28.98
2022-09-12T12:04:38.389Z,29.20
2022-09-12T12:07:08.356Z,29.65
2022-09-12T12:09:52.762Z,30.24
2022-09-12T12:12:24.753Z,30.15
2022-09-12T12:14:55.345Z,29.72
2022-09-12T12:17:25.048Z,29.35
2022-09-12T12:20:05.783Z,30.14
2022-09-12T12:22:34.665Z,31.05
2022-09-12T12:25:29.719Z,31.52
2022-09-12T12:28:01.395Z,32.31
2022-09-12T12:31:03.082Z,32.89
2022-09-12T12:34:03.572Z,33.32
2022-09-12T12:36:41.522Z,33.81
2022-09-12T12:39:55.394Z,34.33
2022-09-12T12:42:41.252Z,34.74
2022-09-12T12:45:51.944Z,35.23
2022-09-12T12:48:20.485Z,34.52
2022-09-12T12:50:48.356Z,34.82
2022-09-12T12:53:22.924Z,34.21
2022-09-12T12:55:52.261Z,34.63
2022-09-12T12:58:29.544Z,35.23
2022-09-12T13:01:14.180Z,35.68
2022-09-12T13:03:45.213Z,36.43
2022-09-12T13:06:31.516Z,36.76
2022-09-12T13:09:03.322Z,37.54
2022-09-12T13:11:34.480Z,38.16
2022-09-12T13:14:04.368Z,38.95
2022-09-12T13:16:34.149Z,39.38
2022-09-12T13:19:07.749Z,39.88
2022-09-12T13:21:35.396Z,40.17
2022-09-12T13:24:06.890Z,38.98
2022-09-12T13:26:36.599Z,39.85
2022-09-12T13:29:12.568Z,39.83
2022-09-12T13:31:45.354Z,40.03
2022-09-12T13:34:20.402Z,40.26
2022-09-12T13:37:08.683Z,40.02
2022-09-12T13:39:47.503Z,39.24
2022-09-12T13:42:38.873Z,38.50
2022-09-12T13:45:13.791Z,37.81
2022-09-12T13:47:44.052Z,38.47
2022-09-12T13:50:18.432Z,39.45
2022-09-12T13:52:51.281Z,39.97
2022-09-12T13:55:31.481Z,40.41
2022-09-12T13:58:02.109Z,40.55
2022-09-12T14:00:32.110Z,39.52
2022-09-12T14:03:17.539Z,40.06
2022-09-12T14:05:49.107Z,38.45
2022-09-12T14:08:16.682Z,39.46
2022-09-12T14:10:47.873Z,40.44
2022-09-12T14:13:20.617Z,39.85
2022-09-12T14:15:52.463Z,39.32
2022-09-12T14:18:25.488Z,39.38
2022-09-12T14:20:54.920Z,39.60
2022-09-12T14:23:28.279Z,40.20
2022-09-12T14:25:59.969Z,41.36
2022-09-12T14:28:30.122Z,42.13
2022-09-12T14:31:00.288Z,42.65
2022-09-12T14:33:27.858Z,43.52
2022-09-12T14:36:11.294Z,43.45
2022-09-12T14:38:43.470Z,43.68
2022-09-12T14:41:15.482Z,43.70
2022-09-12T14:43:45.540Z,44.32
2022-09-12T14:46:19.601Z,45.14
2022-09-12T14:48:51.897Z,44.93
2022-09-12T14:51:24.168Z,45.04
2022-09-12T14:53:52.004Z,45.41
2022-09-12T14:56:23.071Z,44.78
2022-09-12T14:58:51.108Z,44.39
2022-09-12T15:01:27.991Z,44.65
2022-09-12T15:03:57.426Z,45.18
2022-09-12T15:06:29.597Z,44.51
2022-09-12T15:08:58.902Z,44.31
2022-09-12T15:11:27.764Z,44.33
2022-09-12T15:13:55.439Z,43.84
2022-09-12T15:16:23.296Z,44.31
2022-09-12T15:18:50.884Z,45.02
2022-09-12T15:21:20.937Z,44.69
2022-09-12T15:23:49.914Z,44.98
2022-09-12T15:26:20.551Z,44.84
2022-09-12T15:28:49.931Z,44.92
2022-09-12T15:31:24.575Z,45.26
2022-09-12T15:33:53.412Z,45.09
2022-09-12T15:36:22.806Z,44.92
2022-09-12T15:38:51.444Z,44.54
2022-09-12T15:41:21.287Z,45.57
2022-09-12T15:43:50.352Z,44.72
2022-09-12T15:46:19.305Z,44.00
2022-09-12T15:48:47.206Z,44.28
2022-09-12T15:51:16.786Z,44.13
2022-09-12T15:53:44.523Z,43.16
2022-09-12T15:56:12.132Z,43.48
2022-09-12T15:58:54.749Z,43.19
2022-09-12T16:01:28.516Z,43.36
2022-09-12T16:03:56.183Z,43.40
2022-09-12T16:06:24.387Z,43.54
2022-09-12T16:08:51.983Z,43.48
2022-09-12T16:11:22.076Z,42.80
2022-09-12T16:13:49.787Z,42.11
2022-09-12T16:16:17.403Z,42.14
2022-09-12T16:18:46.423Z,42.84
2022-09-12T16:21:15.543Z,42.84
2022-09-12T16:23:43.732Z,42.72
2022-09-12T16:26:11.493Z,42.48
2022-09-12T16:28:39.113Z,42.39
2022-09-12T16:31:08.616Z,41.47
2022-09-12T16:33:37.759Z,40.87
2022-09-12T16:36:09.143Z,40.47
2022-09-12T16:38:41.692Z,40.50
2022-09-12T16:41:09.349Z,40.43
2022-09-12T16:43:37.738Z,40.21
2022-09-12T16:46:07.082Z,39.60
2022-09-12T16:48:34.872Z,38.69
2022-09-12T16:51:04.936Z,38.33
2022-09-12T16:53:35.487Z,37.92
2022-09-12T16:56:03.509Z,38.13
2022-09-12T16:58:35.629Z,38.28
2022-09-12T17:01:08.224Z,38.40
2022-09-12T17:03:36.770Z,38.21
2022-09-12T17:06:06.197Z,38.19
2022-09-12T17:08:37.996Z,38.21
2022-09-12T17:11:07.758Z,38.20
2022-09-12T17:13:53.340Z,37.75
2022-09-12T17:16:23.619Z,36.70
2022-09-12T17:18:53.223Z,35.75
2022-09-12T17:21:22.032Z,34.92
2022-09-12T17:23:51.101Z,33.69
2022-09-12T17:26:18.677Z,32.96
2022-09-12T17:28:46.349Z,31.94
2022-09-12T17:31:15.609Z,31.07
2022-09-12T17:33:43.533Z,30.34
2022-09-12T17:36:14.805Z,29.57
2022-09-12T17:38:43.018Z,28.86
2022-09-12T17:41:15.857Z,28.23
2022-09-12T17:43:43.845Z,27.70
2022-09-12T17:46:11.575Z,27.24
2022-09-12T17:48:39.145Z,26.74
2022-09-12T17:51:15.688Z,26.29
2022-09-12T17:53:43.475Z,25.90
2022-09-12T17:56:13.088Z,25.53
2022-09-12T17:58:40.597Z,25.08
2022-09-12T18:01:29.853Z,24.82
2022-09-12T18:03:58.644Z,24.48
2022-09-12T18:06:26.194Z,24.23
2022-09-12T18:08:53.812Z,24.04
2022-09-12T18:11:22.669Z,23.91
2022-09-12T18:13:50.655Z,23.70
2022-09-12T18:16:18.482Z,23.48
2022-09-12T18:18:46.356Z,23.22
2022-09-12T18:21:14.257Z,23.02
2022-09-12T18:23:41.888Z,22.86
2022-09-12T18:26:12.411Z,22.73
2022-09-12T18:28:44.129Z,22.72
2022-09-12T18:31:13.613Z,22.56
2022-09-12T18:33:41.982Z,22.40
2022-09-12T18:36:11.388Z,22.26
2022-09-12T18:38:39.451Z,22.11
2022-09-12T18:41:08.901Z,21.94
2022-09-12T18:43:36.614Z,21.85
2022-09-12T18:46:06.612Z,21.76
2022-09-12T18:48:34.891Z,21.59
2022-09-12T18:51:05.486Z,21.40
2022-09-12T18:53:33.577Z,21.15
2022-09-12T18:56:03.082Z,21.03
2022-09-12T18:58:30.753Z,20.96
2022-09-12T19:00:58.496Z,20.90
2022-09-12T19:03:27.358Z,20.70
2022-09-12T19:05:54.933Z,20.59
2022-09-12T19:08:23.060Z,20.51
2022-09-12T19:10:56.939Z,20.37
2022-09-12T19:13:24.476Z,20.19
2022-09-12T19:15:52.115Z,20.08
2022-09-12T19:18:19.668Z,20.06
2022-09-12T19:20:53.028Z,20.00
2022-09-12T19:23:20.504Z,19.95
2022-09-12T19:25:56.419Z,19.84
2022-09-12T19:28:24.041Z,19.80
2022-09-12T19:30:51.607Z,19.76
2022-09-12T19:33:19.229Z,19.69
2022-09-12T19:35:47.372Z,19.60
2022-09-12T19:38:16.755Z,19.41
2022-09-12T19:40:44.432Z,19.33
2022-09-12T19:43:12.139Z,19.22
2022-09-12T19:45:47.560Z,19.10
2022-09-12T19:48:15.058Z,19.00
2022-09-12T19:50:42.577Z,18.90
2022-09-12T19:53:10.137Z,18.84
2022-09-12T19:55:39.008Z,18.81
2022-09-12T19:58:06.916Z,18.74
2022-09-12T20:00:35.320Z,18.75
2022-09-12T20:03:03.825Z,18.67
2022-09-12T20:05:32.861Z,18.62
2022-09-12T20:08:00.556Z,18.55
2022-09-12T20:10:28.308Z,18.50
2022-09-12T20:12:57.162Z,18.48
2022-09-12T20:15:24.741Z,18.41
2022-09-12T20:17:55.548Z,18.36
2022-09-12T20:20:25.223Z,18.30
2022-09-12T20:22:53.756Z,18.28
2022-09-12T20:25:21.410Z,18.24
2022-09-12T20:27:49.015Z,18.19
2022-09-12T20:30:17.903Z,18.17
2022-09-12T20:32:45.480Z,18.11
2022-09-12T20:35:13.079Z,18.05
2022-09-12T20:37:41.038Z,18.00
2022-09-12T20:40:09.482Z,17.93
2022-09-12T20:42:37.228Z,17.87
2022-09-12T20:45:05.848Z,17.78
2022-09-12T20:47:34.728Z,17.74
2022-09-12T20:50:02.253Z,17.71
2022-09-12T20:52:29.782Z,17.73
2022-09-12T20:54:57.264Z,17.71
2022-09-12T20:57:24.800Z,17.66
2022-09-12T20:59:52.333Z,17.66
2022-09-12T21:02:20.750Z,17.65
2022-09-12T21:04:50.764Z,17.72
2022-09-12T21:07:18.294Z,17.78
2022-09-12T21:09:45.837Z,17.80
2022-09-12T21:12:13.453Z,17.75
2022-09-12T21:14:40.951Z,17.72
2022-09-12T21:17:08.472Z,17.66
2022-09-12T21:19:36.161Z,17.60
2022-09-12T21:22:05.075Z,17.55
2022-09-12T21:24:32.577Z,17.45
2022-09-12T21:27:04.232Z,17.37
2022-09-12T21:29:32.314Z,17.30
2022-09-12T21:31:59.850Z,17.20
2022-09-12T21:34:27.593Z,17.18
2022-09-12T21:36:55.176Z,17.18
2022-09-12T21:39:24.089Z,17.16
2022-09-12T21:41:51.636Z,17.11
2022-09-12T21:44:19.151Z,17.14
2022-09-12T21:46:46.702Z,17.21
2022-09-12T21:49:14.271Z,17.18
2022-09-12T21:51:41.766Z,17.16
2022-09-12T21:54:09.508Z,17.17
2022-09-12T21:56:38.399Z,17.16
2022-09-12T21:59:06.051Z,17.14
2022-09-12T22:01:33.593Z,17.11
2022-09-12T22:04:01.169Z,17.04
2022-09-12T22:06:28.705Z,17.02
2022-09-12T22:08:56.253Z,17.03
2022-09-12T22:11:23.800Z,17.05
2022-09-12T22:13:52.685Z,17.01
2022-09-12T22:16:20.340Z,17.02
2022-09-12T22:18:47.923Z,16.97
2022-09-12T22:21:17.113Z,16.91
2022-09-12T22:24:02.126Z,16.87
2022-09-12T22:26:30.196Z,16.84
2022-09-12T22:28:59.025Z,16.90
2022-09-12T22:31:26.931Z,16.88
2022-09-12T22:33:56.973Z,16.80
2022-09-12T22:36:28.123Z,16.70
2022-09-12T22:38:58.680Z,16.67
2022-09-12T22:41:26.504Z,16.65
2022-09-12T22:43:54.309Z,16.64
2022-09-12T22:46:23.808Z,16.64
2022-09-12T22:48:52.121Z,16.62
2022-09-12T22:51:19.809Z,16.52
2022-09-12T22:53:47.476Z,16.40
2022-09-12T22:56:15.156Z,16.36
2022-09-12T22:58:43.519Z,16.33
2022-09-12T23:01:11.786Z,16.24
2022-09-12T23:03:41.176Z,16.27
2022-09-12T23:06:09.891Z,16.25
2022-09-12T23:08:38.740Z,16.25
2022-09-12T23:11:09.040Z,16.17
2022-09-12T23:13:36.987Z,16.15
2022-09-12T23:16:08.466Z,16.18
2022-09-12T23:18:36.952Z,16.15
2022-09-12T23:21:07.615Z,16.12
2022-09-12T23:23:35.705Z,16.09
2022-09-12T23:26:05.435Z,16.05
2022-09-12T23:28:33.154Z,16.02
2022-09-12T23:31:00.950Z,16.04
2022-09-12T23:33:29.216Z,16.04
2022-09-12T23:36:01.184Z,16.01
2022-09-12T23:38:30.996Z,15.96
2022-09-12T23:40:59.177Z,15.88
2022-09-12T23:43:26.948Z,15.81
2022-09-12T23:45:54.581Z,15.73
2022-09-12T23:48:22.215Z,15.71
2022-09-12T23:50:50.127Z,15.72
2022-09-12T23:53:18.918Z,15.75
2022-09-12T23:55:48.571Z,15.73
2022-09-12T23:58:16.900Z,15.69
